Terminal Aerodrome Forecast
Issued by NWS

Home | Current Version | Previous Version | Text Only | Print | Product List | Glossary Off
Versions: 1 2 3 4 5 6 7 8 9 10 11 12 13 14 15 16 17 18 19 20 21 22 23 24 25 26 27 28 29 30

000
FTUS43 KTOP 242000 AAA
TAFMHK
TAF AMD
KMHK 242054Z 2421/2518 01005KT 5SM -SHRA BR SCT008 BKN012 OVC022
      TEMPO 2421/2422 BKN008 OVC012
     FM242300 VRB04KT P6SM FEW025 SCT150
     FM250600 00000KT 3SM BR FEW001
     FM251100 17005KT P6SM BKN100=

USA.gov is the U.S. government's official web portal to all federal, state and local government web resources and services.